createdAt,value
2018-04-12T00:00:51.156Z,32.90
2018-04-12T00:03:18.515Z,32.10
2018-04-12T00:05:45.950Z,33.10
2018-04-12T00:08:15.671Z,31.80
2018-04-12T00:10:44.547Z,32.53
2018-04-12T00:13:12.043Z,32.83
2018-04-12T00:15:39.429Z,32.60
2018-04-12T00:18:06.803Z,32.67
2018-04-12T00:20:34.220Z,30.63
2018-04-12T00:23:01.570Z,31.73
2018-04-12T00:25:28.924Z,30.43
2018-04-12T00:27:56.310Z,31.80
2018-04-12T00:30:23.686Z,31.40
2018-04-12T00:32:51.035Z,30.13
2018-04-12T00:35:18.431Z,31.17
2018-04-12T00:37:45.786Z,31.57
2018-04-12T00:40:13.132Z,32.20
2018-04-12T00:42:40.550Z,31.60
2018-04-12T00:45:07.915Z,31.17
2018-04-12T00:47:35.418Z,31.10
2018-04-12T00:50:02.808Z,31.80
2018-04-12T00:52:30.153Z,30.30
2018-04-12T00:54:57.539Z,31.70
2018-04-12T00:57:24.951Z,31.67
2018-04-12T00:59:52.318Z,31.43
2018-04-12T01:02:19.679Z,30.80
2018-04-12T01:04:47.095Z,32.13
2018-04-12T01:07:14.463Z,31.43
2018-04-12T01:09:41.806Z,31.33
2018-04-12T01:12:09.260Z,33.87
2018-04-12T01:14:36.609Z,31.73
2018-04-12T01:17:03.968Z,32.00
2018-04-12T01:19:31.358Z,32.30
2018-04-12T01:21:58.735Z,32.70
2018-04-12T01:24:26.087Z,32.10
2018-04-12T01:26:53.467Z,32.70
2018-04-12T01:29:20.947Z,33.03
2018-04-12T01:31:48.343Z,32.70
2018-04-12T01:34:15.697Z,32.87
2018-04-12T01:36:43.073Z,32.07
2018-04-12T01:39:10.443Z,32.30
2018-04-12T01:41:37.838Z,32.47
2018-04-12T01:44:05.239Z,32.47
2018-04-12T01:46:32.718Z,32.13
2018-04-12T01:49:00.077Z,32.40
2018-04-12T01:51:27.940Z,32.67
2018-04-12T01:53:55.408Z,33.20
2018-04-12T01:56:22.796Z,32.63
2018-04-12T01:58:50.195Z,33.20
2018-04-12T02:01:17.600Z,32.97
2018-04-12T02:03:44.975Z,32.63
2018-04-12T02:06:12.358Z,31.97
2018-04-12T02:08:39.783Z,32.97
2018-04-12T02:11:07.200Z,31.03
2018-04-12T02:13:34.603Z,33.00
2018-04-12T02:16:01.988Z,32.80
2018-04-12T02:18:29.419Z,33.77
2018-04-12T02:20:56.807Z,31.37
2018-04-12T02:23:24.161Z,33.70
2018-04-12T02:25:51.574Z,31.80
2018-04-12T02:28:18.964Z,33.30
2018-04-12T02:30:46.328Z,33.07
2018-04-12T02:33:13.713Z,33.10
2018-04-12T02:35:41.087Z,33.30
2018-04-12T02:38:08.439Z,34.07
2018-04-12T02:40:35.864Z,33.93
2018-04-12T02:43:03.254Z,35.37
2018-04-12T02:45:30.648Z,34.40
2018-04-12T02:47:58.048Z,34.63
2018-04-12T02:50:25.459Z,32.37
2018-04-12T02:52:52.852Z,33.17
2018-04-12T02:55:20.211Z,34.00
2018-04-12T02:57:47.636Z,34.53
2018-04-12T03:00:14.995Z,34.30
2018-04-12T03:02:42.386Z,36.20
2018-04-12T03:05:09.734Z,35.30
2018-04-12T03:07:37.125Z,33.53
2018-04-12T03:10:04.511Z,33.77
2018-04-12T03:12:32.058Z,35.70
2018-04-12T03:14:59.440Z,33.67
2018-04-12T03:17:26.856Z,34.20
2018-04-12T03:19:54.236Z,35.40
2018-04-12T03:22:21.595Z,34.30
2018-04-12T03:24:49.008Z,34.23
2018-04-12T03:27:16.461Z,35.87
2018-04-12T03:29:43.863Z,36.07
2018-04-12T03:32:11.262Z,36.97
2018-04-12T03:34:38.631Z,33.47
2018-04-12T03:37:06.011Z,36.10
2018-04-12T03:39:33.436Z,36.40
2018-04-12T03:42:00.839Z,36.80
2018-04-12T03:44:28.224Z,36.27
2018-04-12T03:46:55.619Z,36.70
2018-04-12T03:49:22.989Z,37.80
2018-04-12T03:51:50.453Z,37.70
2018-04-12T03:54:17.824Z,36.80
2018-04-12T03:56:45.216Z,36.70
2018-04-12T03:59:12.658Z,36.87
2018-04-12T04:01:40.064Z,36.37
2018-04-12T04:04:07.492Z,36.97
2018-04-12T04:06:34.928Z,37.53
2018-04-12T04:09:02.320Z,38.60
2018-04-12T04:11:29.678Z,37.00
2018-04-12T04:13:57.097Z,35.70
2018-04-12T04:16:30.512Z,35.97
2018-04-12T04:19:03.863Z,36.30
2018-04-12T04:21:31.242Z,37.70
2018-04-12T04:23:58.635Z,36.73
2018-04-12T04:26:26.163Z,38.37
2018-04-12T04:28:53.548Z,39.00
2018-04-12T04:31:20.942Z,38.47
2018-04-12T04:33:48.528Z,38.87
2018-04-12T04:36:15.884Z,36.70
2018-04-12T04:38:43.273Z,38.30
2018-04-12T04:41:10.708Z,39.80
2018-04-12T04:43:38.126Z,38.27
2018-04-12T04:46:05.626Z,38.07
2018-04-12T04:48:33.031Z,38.87
2018-04-12T04:51:00.675Z,38.10
2018-04-12T04:53:28.034Z,36.87
2018-04-12T04:55:55.476Z,37.73
2018-04-12T04:58:22.867Z,39.00
2018-04-12T05:00:50.288Z,37.20
2018-04-12T05:03:17.662Z,37.77
2018-04-12T05:05:45.018Z,36.17
2018-04-12T05:08:12.440Z,38.70
2018-04-12T05:10:39.793Z,37.43
2018-04-12T05:13:07.681Z,37.13
2018-04-12T05:15:35.174Z,37.30
2018-04-12T05:18:02.563Z,36.27
2018-04-12T05:20:29.945Z,37.17
2018-04-12T05:22:57.375Z,35.43
2018-04-12T05:25:25.429Z,38.53
2018-04-12T05:27:53.150Z,35.00
2018-04-12T05:30:20.566Z,35.47
2018-04-12T05:32:48.678Z,35.80
2018-04-12T05:35:16.069Z,35.60
2018-04-12T05:37:43.445Z,35.03
2018-04-12T05:40:10.879Z,34.17
2018-04-12T05:42:38.266Z,35.30
2018-04-12T05:45:05.626Z,33.80
2018-04-12T05:47:33.053Z,34.73
2018-04-12T05:50:00.453Z,32.33
2018-04-12T05:52:27.912Z,33.30
2018-04-12T05:54:55.940Z,33.80
2018-04-12T05:57:23.368Z,32.90
2018-04-12T05:59:50.757Z,33.30
2018-04-12T06:02:18.191Z,33.20
2018-04-12T06:04:45.588Z,32.77
2018-04-12T06:07:13.004Z,32.47
2018-04-12T06:09:40.436Z,33.30
2018-04-12T06:12:07.824Z,31.70
2018-04-12T06:14:35.208Z,31.73
2018-04-12T06:17:02.603Z,33.17
2018-04-12T06:19:30.018Z,31.77
2018-04-12T06:21:57.372Z,31.47
2018-04-12T06:24:24.809Z,30.37
2018-04-12T06:26:52.213Z,32.17
2018-04-12T06:29:19.608Z,30.73
2018-04-12T06:31:47.021Z,31.57
2018-04-12T06:34:14.369Z,31.30
2018-04-12T06:36:41.758Z,30.53
2018-04-12T06:39:09.156Z,29.83
2018-04-12T06:41:36.571Z,30.30
2018-04-12T06:44:03.954Z,30.20
2018-04-12T06:46:31.304Z,30.30
2018-04-12T06:48:58.697Z,29.07
2018-04-12T06:51:26.082Z,30.93
2018-04-12T06:53:53.463Z,29.30
2018-04-12T06:56:20.854Z,28.53
2018-04-12T06:58:48.293Z,28.20
2018-04-12T07:01:15.680Z,28.00
2018-04-12T07:03:43.066Z,27.70
2018-04-12T07:06:10.443Z,27.27
2018-04-12T07:08:37.851Z,29.13
2018-04-12T07:11:05.229Z,27.00
2018-04-12T07:13:32.613Z,28.00
2018-04-12T07:16:00.079Z,26.17
2018-04-12T07:18:27.459Z,26.13
2018-04-12T07:20:54.864Z,26.40
2018-04-12T07:23:22.256Z,26.90
2018-04-12T07:25:49.652Z,26.30
2018-04-12T07:28:17.092Z,26.07
2018-04-12T07:30:44.479Z,25.07
2018-04-12T07:33:11.836Z,26.33
2018-04-12T07:35:39.265Z,24.93
2018-04-12T07:38:06.660Z,25.83
2018-04-12T07:40:34.010Z,25.77
2018-04-12T07:43:01.488Z,25.13
2018-04-12T07:45:28.846Z,25.20
2018-04-12T07:47:56.211Z,24.83
2018-04-12T07:50:23.639Z,25.40
2018-04-12T07:52:51.019Z,25.90
2018-04-12T07:55:18.460Z,25.53
2018-04-12T07:57:45.858Z,24.47
2018-04-12T08:00:13.279Z,24.57
2018-04-12T08:02:40.680Z,25.20
2018-04-12T08:05:11.441Z,25.37
2018-04-12T08:07:38.793Z,24.43
2018-04-12T08:10:06.196Z,24.20
2018-04-12T08:12:33.608Z,24.50
2018-04-12T08:15:01.076Z,25.70
2018-04-12T08:17:32.202Z,23.10
2018-04-12T08:19:59.599Z,24.37
2018-04-12T08:22:26.975Z,24.70
2018-04-12T08:24:54.338Z,23.83
2018-04-12T08:27:21.861Z,23.87
2018-04-12T08:29:49.220Z,22.70
2018-04-12T08:32:16.583Z,24.03
2018-04-12T08:34:43.983Z,23.33
2018-04-12T08:37:11.335Z,22.17
2018-04-12T08:39:38.720Z,23.30
2018-04-12T08:42:06.172Z,22.90
2018-04-12T08:44:33.555Z,22.23
2018-04-12T08:47:01.101Z,21.90
2018-04-12T08:49:28.464Z,22.37
2018-04-12T08:51:55.913Z,22.93
2018-04-12T08:54:23.479Z,22.20
2018-04-12T08:56:50.984Z,21.70
2018-04-12T08:59:18.489Z,21.70
2018-04-12T09:01:45.887Z,21.10
2018-04-12T09:04:13.276Z,20.10
2018-04-12T09:06:40.646Z,20.00
2018-04-12T09:09:08.034Z,19.30
2018-04-12T09:11:35.417Z,20.73
2018-04-12T09:14:02.781Z,20.70
2018-04-12T09:16:30.168Z,20.40
2018-04-12T09:18:57.585Z,19.40
2018-04-12T09:21:24.971Z,20.23
2018-04-12T09:23:52.318Z,19.00
2018-04-12T09:26:19.717Z,19.50
2018-04-12T09:28:47.127Z,18.60
2018-04-12T09:31:14.516Z,18.53
2018-04-12T09:33:41.873Z,19.37
2018-04-12T09:36:09.364Z,19.63
2018-04-12T09:38:36.775Z,18.43
2018-04-12T09:41:04.244Z,19.17
2018-04-12T09:43:31.636Z,18.23
2018-04-12T09:45:59.018Z,18.37
2018-04-12T09:48:26.559Z,18.23
2018-04-12T09:50:54.102Z,16.90
2018-04-12T09:53:21.491Z,17.73
2018-04-12T09:55:49.724Z,18.00
2018-04-12T09:58:17.300Z,16.70
2018-04-12T10:00:50.799Z,17.73
2018-04-12T10:03:18.325Z,16.00
2018-04-12T10:05:51.574Z,16.30
2018-04-12T10:08:24.796Z,15.00
2018-04-12T10:10:52.304Z,15.13
2018-04-12T10:13:19.675Z,14.93
2018-04-12T10:15:47.163Z,15.30
2018-04-12T10:18:14.633Z,14.60
2018-04-12T10:20:42.092Z,13.67
2018-04-12T10:23:09.583Z,14.37
2018-04-12T10:25:37.022Z,14.00
2018-04-12T10:28:04.460Z,13.47
2018-04-12T10:30:31.896Z,12.93
2018-04-12T10:32:59.685Z,13.53
2018-04-12T10:35:27.285Z,12.87
2018-04-12T10:37:54.666Z,13.17
2018-04-12T10:40:22.095Z,14.20
2018-04-12T10:42:49.508Z,12.47
2018-04-12T10:45:17.109Z,13.00
2018-04-12T10:47:44.502Z,13.40
2018-04-12T10:50:11.858Z,11.80
2018-04-12T10:52:39.243Z,10.53
2018-04-12T10:55:06.656Z,10.60
2018-04-12T10:57:34.039Z,10.07
2018-04-12T11:00:01.408Z,10.60
2018-04-12T11:02:28.834Z,10.23
2018-04-12T11:04:56.290Z,10.13
2018-04-12T11:07:23.648Z,10.03
2018-04-12T11:09:51.551Z,9.80
2018-04-12T11:12:18.987Z,9.77
2018-04-12T11:14:46.659Z,10.00
2018-04-12T11:17:14.056Z,9.73
2018-04-12T11:19:41.451Z,10.13
2018-04-12T11:22:08.867Z,10.23
2018-04-12T11:24:36.222Z,10.30
2018-04-12T11:27:03.674Z,9.27
2018-04-12T11:29:31.051Z,9.60
2018-04-12T11:31:58.449Z,9.67
2018-04-12T11:34:25.927Z,10.50
2018-04-12T11:36:53.310Z,9.80
2018-04-12T11:39:20.664Z,10.00
2018-04-12T11:41:48.077Z,9.47
2018-04-12T11:44:15.447Z,9.77
2018-04-12T11:46:42.888Z,9.20
2018-04-12T11:49:10.345Z,8.23
2018-04-12T11:51:37.703Z,9.40
2018-04-12T11:54:05.065Z,8.97
2018-04-12T11:56:32.472Z,8.93
2018-04-12T11:58:59.878Z,8.43
2018-04-12T12:01:27.252Z,9.03
2018-04-12T12:03:54.660Z,8.80
2018-04-12T12:06:22.041Z,7.77
2018-04-12T12:08:49.410Z,8.63
2018-04-12T12:11:16.837Z,8.10
2018-04-12T12:13:44.223Z,8.53
2018-04-12T12:16:11.615Z,8.10
2018-04-12T12:18:39.040Z,7.50
2018-04-12T12:21:06.477Z,7.90
2018-04-12T12:23:33.951Z,8.53
2018-04-12T12:26:01.326Z,8.23
2018-04-12T12:28:28.708Z,7.70
2018-04-12T12:30:56.141Z,7.43
2018-04-12T12:33:24.454Z,7.50
2018-04-12T12:35:51.859Z,7.50
2018-04-12T12:38:19.259Z,7.90
2018-04-12T12:40:46.643Z,8.20
2018-04-12T12:43:14.015Z,8.10
2018-04-12T12:45:41.411Z,7.63
2018-04-12T12:48:08.932Z,7.60
2018-04-12T12:50:36.312Z,7.50
2018-04-12T12:53:03.746Z,7.60
2018-04-12T12:55:31.569Z,7.17
2018-04-12T12:57:58.924Z,6.93
2018-04-12T13:00:26.319Z,7.20
2018-04-12T13:02:53.717Z,7.13
2018-04-12T13:05:21.109Z,6.77
2018-04-12T13:07:48.502Z,6.93
2018-04-12T13:10:15.887Z,6.80
2018-04-12T13:12:43.244Z,6.63
2018-04-12T13:15:10.757Z,6.80
2018-04-12T13:17:38.186Z,6.60
2018-04-12T13:20:05.745Z,6.40
2018-04-12T13:22:33.306Z,6.63
2018-04-12T13:25:00.796Z,6.63
2018-04-12T13:27:28.175Z,7.20
2018-04-12T13:29:55.561Z,6.10
2018-04-12T13:32:22.950Z,6.40
2018-04-12T13:34:50.485Z,6.17
2018-04-12T13:37:18.143Z,5.80
2018-04-12T13:39:45.513Z,6.00
2018-04-12T13:42:12.892Z,5.80
2018-04-12T13:44:40.312Z,6.10
2018-04-12T13:47:07.663Z,5.57
2018-04-12T13:49:35.043Z,5.40
2018-04-12T13:52:02.456Z,6.10
2018-04-12T13:54:29.799Z,5.93
2018-04-12T13:56:57.168Z,5.80
2018-04-12T13:59:24.539Z,5.97
2018-04-12T14:01:51.904Z,5.80
2018-04-12T14:04:19.304Z,5.73
2018-04-12T14:06:46.694Z,5.60
2018-04-12T14:09:14.056Z,5.93
2018-04-12T14:11:41.461Z,5.70
2018-04-12T14:14:08.870Z,6.03
2018-04-12T14:16:36.282Z,5.70
2018-04-12T14:19:03.771Z,5.60
2018-04-12T14:21:31.138Z,5.80
2018-04-12T14:23:58.559Z,5.80
2018-04-12T14:26:25.947Z,5.47
2018-04-12T14:28:53.304Z,5.57
2018-04-12T14:31:20.706Z,5.50
2018-04-12T14:33:48.112Z,5.80
2018-04-12T14:36:15.537Z,5.90
2018-04-12T14:38:45.965Z,6.20
2018-04-12T14:41:13.343Z,5.90
2018-04-12T14:43:40.703Z,6.50
2018-04-12T14:46:08.054Z,6.70
2018-04-12T14:48:35.455Z,6.20
2018-04-12T14:51:02.880Z,6.47
2018-04-12T14:53:30.304Z,6.70
2018-04-12T14:55:57.652Z,6.50
2018-04-12T14:58:25.051Z,6.33
2018-04-12T15:00:52.449Z,6.17
2018-04-12T15:03:19.843Z,6.37
2018-04-12T15:05:47.211Z,6.50
2018-04-12T15:08:14.579Z,6.53
2018-04-12T15:10:41.997Z,6.37
2018-04-12T15:13:09.395Z,6.30
2018-04-12T15:15:36.829Z,5.87
2018-04-12T15:18:04.241Z,7.43
2018-04-12T15:20:31.760Z,8.50
2018-04-12T15:22:59.166Z,8.90
2018-04-12T15:25:26.567Z,9.10
2018-04-12T15:27:53.966Z,9.43
2018-04-12T15:30:21.363Z,9.93
2018-04-12T15:32:49.618Z,10.20
2018-04-12T15:35:17.552Z,9.90
2018-04-12T15:37:45.158Z,10.90
2018-04-12T15:40:13.773Z,11.03
2018-04-12T15:42:41.216Z,9.90
2018-04-12T15:45:08.567Z,10.90
2018-04-12T15:47:36.009Z,10.50
2018-04-12T15:50:03.407Z,10.67
2018-04-12T15:52:30.846Z,11.87
2018-04-12T15:54:58.271Z,10.83
2018-04-12T15:57:25.671Z,10.70
2018-04-12T15:59:53.088Z,11.77
2018-04-12T16:02:20.706Z,12.03
2018-04-12T16:04:48.111Z,12.20
2018-04-12T16:07:15.521Z,13.17
2018-04-12T16:09:42.878Z,12.20
2018-04-12T16:12:10.276Z,12.30
2018-04-12T16:14:37.670Z,13.23
2018-04-12T16:17:05.059Z,12.50
2018-04-12T16:19:32.476Z,13.00
2018-04-12T16:21:59.856Z,12.87
2018-04-12T16:24:27.275Z,14.33
2018-04-12T16:26:54.726Z,14.00
2018-04-12T16:29:22.086Z,14.30
2018-04-12T16:31:49.748Z,13.60
2018-04-12T16:34:17.202Z,14.50
2018-04-12T16:36:44.639Z,14.73
2018-04-12T16:39:12.044Z,15.70
2018-04-12T16:41:39.477Z,15.70
2018-04-12T16:44:06.967Z,15.73
2018-04-12T16:46:34.343Z,15.17
2018-04-12T16:49:01.734Z,15.63
2018-04-12T16:51:29.124Z,15.90
2018-04-12T16:53:56.543Z,16.00
2018-04-12T16:56:23.932Z,16.50
2018-04-12T16:58:51.327Z,15.63
2018-04-12T17:01:18.815Z,16.70
2018-04-12T17:03:46.229Z,16.67
2018-04-12T17:06:13.742Z,16.67
2018-04-12T17:08:41.141Z,17.17
2018-04-12T17:11:08.500Z,18.60
2018-04-12T17:13:35.877Z,17.47
2018-04-12T17:16:03.283Z,16.80
2018-04-12T17:18:30.688Z,18.03
2018-04-12T17:20:58.076Z,17.30
2018-04-12T17:23:25.507Z,19.93
2018-04-12T17:25:52.896Z,18.53
2018-04-12T17:28:20.298Z,17.23
2018-04-12T17:30:47.713Z,18.03
2018-04-12T17:33:15.126Z,18.70
2018-04-12T17:35:42.543Z,18.27
2018-04-12T17:38:09.970Z,18.73
2018-04-12T17:40:37.362Z,18.80
2018-04-12T17:43:04.792Z,19.23
2018-04-12T17:45:32.172Z,20.63
2018-04-12T17:47:59.796Z,22.40
2018-04-12T17:50:27.665Z,20.53
2018-04-12T17:52:55.042Z,20.07
2018-04-12T17:55:22.591Z,21.20
2018-04-12T17:57:50.059Z,22.50
2018-04-12T18:00:17.506Z,22.40
2018-04-12T18:02:44.888Z,21.30
2018-04-12T18:05:12.344Z,21.17
2018-04-12T18:07:39.738Z,22.00
2018-04-12T18:10:07.095Z,21.13
2018-04-12T18:12:34.647Z,22.50
2018-04-12T18:15:02.009Z,22.93
2018-04-12T18:17:29.374Z,22.87
2018-04-12T18:19:56.790Z,23.70
2018-04-12T18:22:24.214Z,24.57
2018-04-12T18:24:51.608Z,25.30
2018-04-12T18:27:19.011Z,25.80
2018-04-12T18:29:46.383Z,24.73
2018-04-12T18:32:13.917Z,25.77
2018-04-12T18:34:41.266Z,27.00
2018-04-12T18:37:08.618Z,25.50
2018-04-12T18:39:36.362Z,25.83
2018-04-12T18:42:03.735Z,27.10
2018-04-12T18:44:31.129Z,27.47
2018-04-12T18:46:58.531Z,27.27
2018-04-12T18:49:25.884Z,26.17
2018-04-12T18:51:53.563Z,25.37
2018-04-12T18:54:21.068Z,26.90
2018-04-12T18:56:48.898Z,27.30
2018-04-12T18:59:16.529Z,26.73
2018-04-12T19:01:44.011Z,26.53
2018-04-12T19:04:11.500Z,26.30
2018-04-12T19:06:38.874Z,27.27
2018-04-12T19:09:06.312Z,27.13
2018-04-12T19:11:33.843Z,28.33
2018-04-12T19:14:01.206Z,28.17
2018-04-12T19:16:28.681Z,26.73
2018-04-12T19:18:56.116Z,29.30
2018-04-12T19:21:23.674Z,29.50
2018-04-12T19:23:51.152Z,29.07
2018-04-12T19:26:18.771Z,27.70
2018-04-12T19:28:46.165Z,28.47
2018-04-12T19:31:13.811Z,28.67
2018-04-12T19:33:41.254Z,29.43
2018-04-12T19:36:08.729Z,28.23
2018-04-12T19:38:36.141Z,30.53
2018-04-12T19:41:03.665Z,29.60
2018-04-12T19:43:31.043Z,30.07
2018-04-12T19:45:58.411Z,31.20
2018-04-12T19:48:25.815Z,28.70
2018-04-12T19:50:53.194Z,30.17
2018-04-12T19:53:20.604Z,30.47
2018-04-12T19:55:47.994Z,32.93
2018-04-12T19:58:15.423Z,31.30
2018-04-12T20:00:43.041Z,32.20
2018-04-12T20:03:10.466Z,33.17
2018-04-12T20:05:37.908Z,33.50
2018-04-12T20:08:05.266Z,34.53
2018-04-12T20:10:32.839Z,32.67
2018-04-12T20:13:00.259Z,34.13
2018-04-12T20:15:27.735Z,33.57
2018-04-12T20:17:55.159Z,35.43
2018-04-12T20:20:22.702Z,33.77
2018-04-12T20:22:50.231Z,33.43
2018-04-12T20:25:17.633Z,33.93
2018-04-12T20:27:45.157Z,34.57
2018-04-12T20:30:12.587Z,37.53
2018-04-12T20:32:39.954Z,36.03
2018-04-12T20:35:07.342Z,37.10
2018-04-12T20:37:34.842Z,35.87
2018-04-12T20:40:02.649Z,36.33
2018-04-12T20:42:30.165Z,37.10
2018-04-12T20:44:57.606Z,37.00
2018-04-12T20:47:24.989Z,39.47
2018-04-12T20:49:52.360Z,38.20
2018-04-12T20:52:19.805Z,37.60
2018-04-12T20:54:47.173Z,37.40
2018-04-12T20:57:14.636Z,39.30
2018-04-12T20:59:42.067Z,39.20
2018-04-12T21:02:09.465Z,40.37
2018-04-12T21:04:36.840Z,40.00
2018-04-12T21:07:04.259Z,40.37
2018-04-12T21:09:31.669Z,39.40
2018-04-12T21:11:59.074Z,40.00
2018-04-12T21:14:26.485Z,40.70
2018-04-12T21:16:53.871Z,39.13
2018-04-12T21:19:21.283Z,38.83
2018-04-12T21:21:48.643Z,40.90
2018-04-12T21:24:16.013Z,40.40
2018-04-12T21:26:43.455Z,41.23
2018-04-12T21:29:10.868Z,41.10
